createdAt,value
2022-11-21T00:03:25.525Z,7.68
2022-11-21T00:08:27.042Z,8.02
2022-11-21T00:13:28.629Z,8.30
2022-11-21T00:18:37.702Z,9.15
2022-11-21T00:23:39.482Z,8.60
2022-11-21T00:28:41.291Z,9.00
2022-11-21T00:33:42.825Z,9.68
2022-11-21T00:38:44.355Z,8.93
2022-11-21T00:43:45.859Z,9.77
2022-11-21T00:48:47.452Z,8.15
2022-11-21T00:53:48.995Z,7.35
2022-11-21T00:58:50.500Z,7.65
2022-11-21T01:03:51.947Z,6.93
2022-11-21T01:08:53.386Z,6.53
2022-11-21T01:13:55.006Z,7.40
2022-11-21T01:18:56.864Z,6.85
2022-11-21T01:24:01.772Z,6.50
2022-11-21T01:29:03.313Z,6.20
2022-11-21T01:34:04.792Z,6.05
2022-11-21T01:39:07.033Z,4.90
2022-11-21T01:44:11.293Z,5.28
2022-11-21T01:49:32.693Z,4.93
2022-11-21T01:54:37.134Z,4.43
2022-11-21T01:59:58.077Z,5.18
2022-11-21T02:05:00.323Z,5.60
2022-11-21T02:10:03.243Z,4.60
2022-11-21T02:15:05.079Z,5.45
2022-11-21T02:20:07.952Z,5.15
2022-11-21T02:25:09.489Z,5.60
2022-11-21T02:30:11.883Z,5.10
2022-11-21T02:35:14.971Z,5.25
2022-11-21T02:40:21.109Z,5.25
2022-11-21T02:45:29.012Z,5.25
2022-11-21T02:50:31.629Z,5.07
2022-11-21T02:55:33.341Z,5.97
2022-11-21T03:00:36.434Z,6.00
2022-11-21T03:05:39.199Z,5.47
2022-11-21T03:10:40.705Z,5.70
2022-11-21T03:15:42.256Z,5.22
2022-11-21T03:20:43.759Z,6.35
2022-11-21T03:25:45.297Z,5.75
2022-11-21T03:30:47.265Z,5.90
2022-11-21T03:35:48.972Z,6.22
2022-11-21T03:40:50.810Z,6.28
2022-11-21T03:45:52.349Z,6.32
2022-11-21T03:50:54.586Z,6.13
2022-11-21T03:55:56.078Z,8.55
2022-11-21T04:00:57.603Z,8.60
2022-11-21T04:05:59.324Z,9.32
2022-11-21T04:11:00.808Z,9.30
2022-11-21T04:16:02.542Z,10.07
2022-11-21T04:21:06.243Z,10.15
2022-11-21T04:26:07.755Z,10.55
2022-11-21T04:31:11.110Z,10.02
2022-11-21T04:36:12.922Z,12.77
2022-11-21T04:41:14.320Z,13.73
2022-11-21T04:46:15.827Z,11.95
2022-11-21T04:51:17.334Z,13.13
2022-11-21T04:56:18.759Z,12.57
2022-11-21T05:01:20.399Z,10.73
2022-11-21T05:06:22.233Z,11.95
2022-11-21T05:11:42.612Z,11.50
2022-11-21T05:16:44.209Z,11.05
2022-11-21T05:21:45.835Z,12.90
2022-11-21T05:26:47.404Z,11.27
2022-11-21T05:31:48.877Z,12.52
2022-11-21T05:36:57.323Z,11.32
2022-11-21T05:42:02.911Z,12.30
2022-11-21T05:47:04.912Z,12.45
2022-11-21T05:52:06.360Z,12.40
2022-11-21T05:57:07.775Z,13.65
2022-11-21T06:02:27.705Z,12.52
2022-11-21T06:07:29.164Z,12.82
2022-11-21T06:12:31.284Z,13.20
2022-11-21T06:17:33.309Z,12.93
2022-11-21T06:22:34.867Z,13.07
2022-11-21T06:27:36.492Z,12.93
2022-11-21T06:32:38.345Z,11.80
2022-11-21T06:37:39.891Z,13.15
2022-11-21T06:42:42.135Z,13.45
2022-11-21T06:47:43.683Z,15.07
2022-11-21T06:52:45.093Z,15.65
2022-11-21T06:57:46.606Z,15.27
2022-11-21T07:02:48.095Z,15.23
2022-11-21T07:07:51.322Z,14.95
2022-11-21T07:13:11.291Z,15.48
2022-11-21T07:18:12.996Z,15.23
2022-11-21T07:23:14.820Z,16.23
2022-11-21T07:28:16.585Z,16.15
2022-11-21T07:33:18.028Z,16.48
2022-11-21T07:38:20.063Z,17.98
2022-11-21T07:43:21.725Z,16.10
2022-11-21T07:48:23.348Z,17.58
2022-11-21T07:53:24.874Z,17.05
2022-11-21T07:58:26.495Z,17.50
2022-11-21T08:03:28.399Z,18.58
2022-11-21T08:08:30.621Z,15.80
2022-11-21T08:13:32.590Z,18.08
2022-11-21T08:18:34.225Z,15.68
2022-11-21T08:23:35.722Z,16.80
2022-11-21T08:28:37.353Z,17.67
2022-11-21T08:33:38.961Z,15.82
2022-11-21T08:38:40.542Z,16.63
2022-11-21T08:43:42.211Z,18.02
2022-11-21T08:48:43.821Z,15.35
2022-11-21T08:53:46.842Z,15.50
2022-11-21T08:58:48.340Z,15.38
2022-11-21T09:03:50.005Z,14.60
2022-11-21T09:08:51.801Z,16.00
2022-11-21T09:14:12.851Z,15.75
2022-11-21T09:19:14.443Z,15.23
2022-11-21T09:24:16.135Z,15.02
2022-11-21T09:29:17.991Z,15.43
2022-11-21T09:34:23.102Z,14.82
2022-11-21T09:39:25.375Z,17.58
2022-11-21T09:44:47.250Z,16.08
2022-11-21T09:50:09.464Z,15.07
2022-11-21T09:55:21.586Z,15.90
2022-11-21T10:00:24.329Z,16.45
2022-11-21T10:05:44.757Z,16.65
2022-11-21T10:10:58.700Z,15.88
2022-11-21T10:16:05.189Z,13.80
2022-11-21T10:21:09.357Z,13.52
2022-11-21T10:26:17.481Z,15.40
2022-11-21T10:31:19.573Z,16.75
2022-11-21T10:36:29.332Z,16.30
2022-11-21T10:41:37.364Z,16.13
2022-11-21T10:46:40.812Z,15.35
2022-11-21T10:52:06.256Z,14.70
2022-11-21T10:57:16.358Z,16.23
2022-11-21T11:02:17.721Z,16.38
2022-11-21T11:07:31.260Z,17.77
2022-11-21T11:12:52.895Z,15.25
2022-11-21T11:17:56.611Z,16.10
2022-11-21T11:22:58.043Z,15.82
2022-11-21T11:28:04.032Z,14.98
2022-11-21T11:33:05.443Z,15.10
2022-11-21T11:38:11.390Z,15.10
2022-11-21T11:43:43.941Z,15.57
2022-11-21T11:49:16.817Z,16.20
2022-11-21T11:54:11.628Z,15.40
2022-11-21T11:59:17.581Z,17.23
2022-11-21T12:04:25.142Z,18.73
2022-11-21T12:09:40.063Z,17.92
2022-11-21T12:15:18.867Z,17.73
2022-11-21T12:20:30.780Z,16.83
2022-11-21T12:25:36.655Z,18.50
2022-11-21T12:30:47.732Z,17.33
2022-11-21T12:36:17.216Z,17.30
2022-11-21T12:41:51.667Z,16.23
2022-11-21T12:46:53.391Z,17.35
2022-11-21T12:52:20.878Z,17.10
2022-11-21T13:07:45.602Z,16.67
2022-11-21T13:13:25.859Z,17.02
2022-11-21T13:18:33.643Z,16.43
2022-11-21T13:23:35.038Z,17.33
2022-11-21T13:28:36.631Z,17.70
2022-11-21T13:33:41.061Z,18.05
2022-11-21T13:39:11.703Z,20.50
2022-11-21T13:49:17.554Z,19.08
2022-11-21T13:54:26.433Z,20.50
2022-11-21T13:59:36.943Z,21.25
2022-11-21T14:04:57.411Z,19.45
2022-11-21T14:10:00.664Z,19.45
2022-11-21T14:15:02.890Z,20.30
2022-11-21T14:20:20.448Z,18.83
2022-11-21T14:25:23.825Z,18.00
2022-11-21T14:30:29.682Z,20.52
2022-11-21T14:35:31.324Z,19.20
2022-11-21T14:40:32.892Z,19.85
2022-11-21T14:45:34.349Z,19.02
2022-11-21T14:50:35.858Z,17.95
2022-11-21T14:55:37.427Z,19.27
2022-11-21T15:06:07.012Z,17.80
2022-11-21T15:11:09.728Z,16.30
2022-11-21T15:16:11.316Z,16.35
2022-11-21T15:21:14.314Z,15.82
2022-11-21T15:26:26.470Z,14.98
2022-11-21T15:31:28.417Z,17.63
2022-11-21T15:36:30.845Z,18.15
2022-11-21T15:41:38.758Z,17.42
2022-11-21T15:46:43.452Z,16.35
2022-11-21T15:57:08.920Z,16.60
2022-11-21T16:02:12.572Z,16.98
2022-11-21T16:07:14.049Z,16.38
2022-11-21T16:12:15.474Z,16.77
2022-11-21T16:17:16.937Z,16.02
2022-11-21T16:22:19.285Z,15.75
2022-11-21T16:27:20.813Z,16.25
2022-11-21T16:32:24.839Z,17.05
2022-11-21T16:37:26.500Z,16.88
2022-11-21T16:42:27.933Z,18.10
2022-11-21T16:47:30.015Z,18.48
2022-11-21T16:52:35.795Z,17.42
2022-11-21T16:57:38.106Z,18.20
2022-11-21T17:02:40.023Z,16.63
2022-11-21T17:07:41.714Z,17.25
2022-11-21T17:12:43.676Z,18.88
2022-11-21T17:17:45.106Z,17.60
2022-11-21T17:22:47.129Z,17.50
2022-11-21T17:27:48.990Z,18.02
2022-11-21T17:32:50.446Z,18.30
2022-11-21T17:37:51.862Z,18.52
2022-11-21T17:42:53.283Z,19.08
2022-11-21T17:47:54.845Z,18.70
2022-11-21T17:52:57.142Z,17.65
2022-11-21T17:57:58.594Z,18.55
2022-11-21T18:03:00.087Z,17.63
2022-11-21T18:08:01.590Z,18.50
2022-11-21T18:13:02.988Z,19.63
2022-11-21T18:18:04.529Z,19.08
2022-11-21T18:23:06.007Z,19.25
2022-11-21T18:28:07.726Z,20.80
2022-11-21T18:33:09.290Z,20.45
2022-11-21T18:38:40.305Z,20.75
2022-11-21T18:43:32.424Z,20.45
2022-11-21T18:49:00.667Z,21.67
2022-11-21T18:53:56.807Z,22.83
2022-11-21T18:58:59.083Z,20.02
2022-11-21T19:04:01.003Z,21.15
2022-11-21T19:09:02.415Z,22.02
2022-11-21T19:14:04.219Z,20.33
2022-11-21T19:19:33.685Z,20.77
2022-11-21T19:24:31.253Z,20.88
2022-11-21T19:29:33.230Z,23.08
2022-11-21T19:34:34.854Z,21.08
2022-11-21T19:39:36.260Z,22.63
2022-11-21T19:44:37.613Z,22.15
2022-11-21T19:49:39.087Z,21.92
2022-11-21T19:54:40.570Z,22.25
2022-11-21T19:59:46.377Z,21.48
2022-11-21T20:04:48.395Z,21.30
2022-11-21T20:09:49.822Z,20.75
2022-11-21T20:14:53.628Z,20.92
2022-11-21T20:19:55.128Z,19.88
2022-11-21T20:24:56.557Z,20.52
2022-11-21T20:29:58.030Z,19.73
2022-11-21T20:34:59.454Z,18.55
2022-11-21T20:40:00.865Z,18.70
2022-11-21T20:51:01.381Z,17.50
2022-11-21T20:55:45.458Z,17.45
2022-11-21T21:00:46.944Z,16.50
2022-11-21T21:05:48.471Z,16.30
2022-11-21T21:11:05.754Z,17.25
2022-11-21T21:16:12.326Z,15.48
2022-11-21T21:21:17.394Z,17.00
2022-11-21T21:26:20.092Z,17.90
2022-11-21T21:31:22.006Z,15.77
2022-11-21T21:36:25.814Z,16.20
2022-11-21T21:41:28.325Z,15.10
2022-11-21T21:46:29.975Z,14.52
2022-11-21T21:51:32.336Z,15.27
2022-11-21T21:56:34.469Z,13.80
2022-11-21T22:01:36.250Z,15.60
2022-11-21T22:06:37.781Z,13.20
2022-11-21T22:11:39.548Z,13.68
2022-11-21T22:16:41.976Z,14.05
2022-11-21T22:21:43.532Z,12.73
2022-11-21T22:26:46.142Z,12.85
2022-11-21T22:31:48.842Z,12.77
2022-11-21T22:36:50.382Z,12.57
2022-11-21T22:41:55.613Z,13.40
2022-11-21T22:47:00.099Z,13.25
2022-11-21T22:52:01.773Z,12.82
2022-11-21T22:57:03.364Z,12.32
2022-11-21T23:02:05.166Z,12.27
2022-11-21T23:07:06.956Z,12.35
2022-11-21T23:12:08.579Z,12.85
2022-11-21T23:17:10.179Z,11.77
2022-11-21T23:22:12.161Z,11.40
2022-11-21T23:27:15.509Z,11.00
2022-11-21T23:32:17.242Z,9.85
2022-11-21T23:37:19.371Z,10.20
2022-11-21T23:42:20.964Z,9.18
2022-11-21T23:47:22.390Z,9.38
2022-11-21T23:52:24.187Z,9.02
2022-11-21T23:57:28.122Z,8.98
